KAR weather

Kamarang Airport
Kamarang, Cuyuni-Mazaruni, Guyana

Public forecast

Using degrees Celsius for public forecast. Weather courtesy of forecast.io.

METAR (pilot weather report)

Report is more than 6 hours old.

Retrieved 2019/01/17 15:00 UTC (2 months ago):

SYKM 171500Z 00000KT 9999 BKN019 27/22 Q//// NOSIG

TAF (pilot weather forecast)

Forecast is more than 12 hours old.

Retrieved 2019/03/18 12:11 UTC (3 days ago):

TAF SYKM 181111Z 1812/1823 06010KT 9999 BKN018 SCT036 BKN090